Time;durP1;ratioP1;P1;durP2;ratioP2;P2;SDS_P1;SDS_P2;PMS_P1;PMS_P2;Temp;Humidity;BMP_temperature;BMP_pressure;BME280_temperature;BME280_humidity;BME280_pressure;Samples;Min_cycle;Max_cycle;Signal;HPM_P1;HPM_P2
2023/05/19 00:01:07;;;;;;;1.57;1.33;;;10.50;79.00;10.30;101566.00;;;;4947799;28;87947;-68
2023/05/19 00:03:39;;;;;;;2.20;1.50;;;10.40;79.30;10.30;101564.00;;;;4947662;28;88111;-68
2023/05/19 00:06:09;;;;;;;1.63;1.30;;;10.30;79.90;10.20;101561.00;;;;4950988;28;87051;-68
2023/05/19 00:08:37;;;;;;;1.50;1.40;;;10.30;80.40;10.20;101557.00;;;;4944863;28;89557;-69
2023/05/19 00:11:04;;;;;;;0.73;0.70;;;10.30;81.00;10.10;101556.00;;;;4947191;28;115214;-68
2023/05/19 00:13:30;;;;;;;2.43;1.00;;;10.20;81.60;10.00;101547.00;;;;4944066;28;88831;-69
2023/05/19 00:15:55;;;;;;;1.70;1.57;;;10.10;82.30;9.90;101557.00;;;;4945940;28;101448;-71
2023/05/19 00:18:22;;;;;;;3.27;1.63;;;10.10;82.90;9.90;101564.00;;;;4948120;28;90225;-68
2023/05/19 00:20:48;;;;;;;2.13;1.50;;;10.00;83.30;9.80;101561.00;;;;4949986;28;90083;-70
2023/05/19 00:23:14;;;;;;;1.33;1.10;;;9.90;83.70;9.80;101553.00;;;;4946343;28;87957;-71
2023/05/19 00:25:39;;;;;;;1.50;1.40;;;9.90;84.40;9.80;101565.00;;;;4950664;28;104468;-68
2023/05/19 00:28:05;;;;;;;4.67;1.27;;;9.90;85.00;9.70;101560.00;;;;4945036;28;99237;-69
2023/05/19 00:30:31;;;;;;;9.03;1.60;;;9.80;85.50;9.80;101563.00;;;;4944872;28;117311;-69
2023/05/19 00:32:56;;;;;;;2.97;1.20;;;9.80;86.20;9.70;101566.00;;;;4944881;28;110501;-69
2023/05/19 00:35:23;;;;;;;1.37;1.27;;;9.80;86.70;9.70;101559.00;;;;4944333;28;100429;-69
2023/05/19 00:37:49;;;;;;;2.00;1.80;;;9.80;87.20;9.70;101555.00;;;;4945039;28;119291;-69
2023/05/19 00:40:14;;;;;;;4.27;1.87;;;9.80;87.90;9.60;101559.00;;;;4946881;28;88861;-71
2023/05/19 00:42:41;;;;;;;2.60;1.83;;;9.70;88.10;9.60;101562.00;;;;4945230;28;109929;-69
2023/05/19 00:45:07;;;;;;;1.53;1.23;;;9.70;88.70;9.60;101571.00;;;;4944674;28;87769;-69
2023/05/19 00:47:33;;;;;;;5.50;1.77;;;10.00;89.70;9.60;101562.00;;;;4945347;28;89185;-69
2023/05/19 00:49:59;;;;;;;5.03;1.70;;;9.70;89.80;9.50;101556.00;;;;4943737;28;96606;-69
2023/05/19 00:52:26;;;;;;;4.17;2.00;;;9.60;90.00;9.40;101562.00;;;;4946754;28;101407;-70
2023/05/19 00:54:54;;;;;;;1.67;1.57;;;9.60;90.20;9.40;101558.00;;;;4947435;28;87394;-68
2023/05/19 00:57:29;;;;;;;3.23;1.47;;;9.50;90.50;9.30;101553.00;;;;4944192;28;117001;-70
2023/05/19 00:59:55;;;;;;;2.00;1.17;;;9.50;90.80;9.30;101551.00;;;;4948881;28;88092;-69
2023/05/19 01:02:20;;;;;;;1.70;1.60;;;9.40;91.00;9.30;101546.00;;;;4948115;28;88687;-69
2023/05/19 01:04:46;;;;;;;1.77;1.63;;;9.40;91.20;9.20;101554.00;;;;4945829;28;109749;-69
2023/05/19 01:07:12;;;;;;;1.67;1.20;;;9.40;91.40;9.20;101549.00;;;;4949973;28;89494;-69
2023/05/19 01:09:39;;;;;;;1.47;1.37;;;9.30;91.60;9.20;101539.00;;;;4944456;28;118706;-69
2023/05/19 01:12:05;;;;;;;1.20;1.10;;;9.30;91.90;9.20;101544.00;;;;4947105;28;88046;-68
2023/05/19 01:14:31;;;;;;;1.63;1.47;;;9.30;92.10;9.20;101538.00;;;;4944681;28;102729;-70
2023/05/19 01:17:08;;;;;;;3.27;2.40;;;9.30;92.40;9.20;101531.00;;;;4943491;28;117767;-69
2023/05/19 01:20:20;;;;;;;2.10;1.43;;;9.30;92.70;9.20;101541.00;;;;4950622;28;87248;-69
2023/05/19 01:23:07;;;;;;;2.67;1.03;;;9.40;92.70;9.20;101542.00;;;;4949451;28;87860;-69
2023/05/19 01:25:54;;;;;;;3.20;1.70;;;9.30;92.80;9.10;101540.00;;;;4946766;28;87705;-69
2023/05/19 01:28:39;;;;;;;4.17;1.33;;;9.30;93.00;9.00;101530.00;;;;4945087;28;89165;-69
2023/05/19 01:31:08;;;;;;;2.27;1.30;;;9.20;93.40;9.10;101527.00;;;;4947398;28;88765;-69
2023/05/19 01:33:36;;;;;;;3.30;1.50;;;9.20;93.70;9.00;101529.00;;;;4948469;28;88116;-69
2023/05/19 01:36:03;;;;;;;2.87;1.77;;;9.20;93.90;9.00;101546.00;;;;4946974;28;108782;-70
2023/05/19 01:38:32;;;;;;;2.17;1.70;;;9.10;94.10;8.90;101549.00;;;;4953814;28;87620;-69
2023/05/19 01:40:58;;;;;;;2.03;1.60;;;9.10;94.20;8.90;101544.00;;;;4952277;28;116106;-70
2023/05/19 01:43:26;;;;;;;3.83;1.40;;;9.00;94.50;8.90;101553.00;;;;4946066;28;100328;-70
2023/05/19 01:45:52;;;;;;;1.20;1.10;;;9.00;94.70;8.90;101549.00;;;;4949984;28;87190;-70
2023/05/19 01:48:18;;;;;;;3.70;1.60;;;9.00;95.00;8.80;101542.00;;;;4950263;28;110106;-70
2023/05/19 01:50:44;;;;;;;2.07;1.87;;;9.00;95.10;8.80;101557.00;;;;4951499;28;117458;-69
2023/05/19 01:53:10;;;;;;;1.97;1.30;;;8.90;95.20;8.80;101541.00;;;;4947206;28;88930;-69
2023/05/19 01:55:45;;;;;;;2.63;2.00;;;8.90;95.60;8.80;101537.00;;;;4948811;28;87953;-69
2023/05/19 01:58:25;;;;;;;2.73;1.70;;;8.90;95.90;8.80;101549.00;;;;4947979;28;89695;-69
2023/05/19 02:01:16;;;;;;;3.70;1.53;;;8.90;96.00;8.70;101543.00;;;;4947942;28;108888;-70
2023/05/19 02:04:06;;;;;;;1.47;1.37;;;8.90;96.20;8.80;101540.00;;;;4949311;28;87852;-69
2023/05/19 02:07:00;;;;;;;1.90;1.50;;;8.90;96.20;8.70;101544.00;;;;4945742;28;87814;-69
2023/05/19 02:09:39;;;;;;;2.30;1.47;;;8.80;96.40;8.60;101534.00;;;;4934171;28;90594;-69
2023/05/19 02:12:10;;;;;;;2.23;2.03;;;8.80;96.70;8.60;101531.00;;;;4952868;28;88027;-70
2023/05/19 02:14:54;;;;;;;2.63;1.37;;;8.70;96.80;8.50;101535.00;;;;4944739;28;87997;-70
2023/05/19 02:17:22;;;;;;;3.10;1.60;;;8.70;96.90;8.50;101548.00;;;;4952103;28;100541;-69
2023/05/19 02:19:47;;;;;;;2.30;1.30;;;8.60;97.10;8.40;101533.00;;;;4946896;28;119170;-70
2023/05/19 02:22:13;;;;;;;2.00;1.70;;;8.60;97.20;8.40;101528.00;;;;4948609;28;118414;-69
2023/05/19 02:24:40;;;;;;;1.93;1.47;;;8.60;97.50;8.30;101533.00;;;;4948055;28;110417;-69
2023/05/19 02:27:05;;;;;;;2.93;1.57;;;8.50;97.60;8.30;101525.00;;;;4948663;28;89901;-69
2023/05/19 02:29:31;;;;;;;0.87;0.87;;;8.50;97.70;8.20;101532.00;;;;4948941;28;87984;-69
2023/05/19 02:31:57;;;;;;;1.63;1.50;;;8.30;97.80;8.10;101532.00;;;;4946777;28;117767;-69
2023/05/19 02:34:23;;;;;;;1.43;1.20;;;8.30;98.10;8.10;101528.00;;;;4948310;28;109655;-69
2023/05/19 02:36:49;;;;;;;2.00;1.77;;;8.30;98.50;8.10;101535.00;;;;4948340;28;108667;-69
2023/05/19 02:39:15;;;;;;;2.53;1.93;;;8.30;98.70;8.20;101528.00;;;;4946706;28;88089;-70
2023/05/19 02:41:41;;;;;;;2.33;1.73;;;8.30;98.90;8.20;101530.00;;;;4948478;28;98689;-70
2023/05/19 02:44:06;;;;;;;4.03;1.63;;;8.40;98.90;8.20;101529.00;;;;4945764;28;110920;-69
2023/05/19 02:46:32;;;;;;;1.53;1.43;;;8.30;98.90;8.10;101525.00;;;;4948507;28;87810;-70
2023/05/19 02:48:58;;;;;;;1.40;1.30;;;8.30;98.90;8.10;101522.00;;;;4944156;28;118004;-70
2023/05/19 02:51:24;;;;;;;1.93;1.50;;;8.20;99.10;8.10;101528.00;;;;4945745;28;103711;-70
2023/05/19 02:53:50;;;;;;;9.67;1.97;;;8.20;99.40;8.00;101532.00;;;;4948919;28;89107;-70
2023/05/19 02:56:15;;;;;;;1.57;1.47;;;8.20;99.50;8.00;101524.00;;;;4947583;28;106915;-70
2023/05/19 02:58:44;;;;;;;1.90;1.40;;;8.20;99.80;8.10;101518.00;;;;4948463;28;117529;-70
2023/05/19 03:01:10;;;;;;;1.87;1.50;;;8.20;99.90;8.10;101516.00;;;;4948728;28;88224;-70
2023/05/19 03:03:36;;;;;;;2.07;1.63;;;8.20;99.90;8.10;101525.00;;;;4949102;28;88178;-70
2023/05/19 03:06:02;;;;;;;1.57;1.47;;;8.20;99.90;8.10;101524.00;;;;4946389;28;108765;-69
2023/05/19 03:08:27;;;;;;;1.93;1.20;;;8.20;99.90;8.10;101533.00;;;;4944599;28;90789;-69
2023/05/19 03:10:53;;;;;;;1.10;1.00;;;8.20;99.90;8.10;101516.00;;;;4945800;28;119869;-70
2023/05/19 03:13:19;;;;;;;2.30;1.60;;;8.20;99.90;8.20;101518.00;;;;4944898;28;110900;-69
2023/05/19 03:15:44;;;;;;;2.10;1.43;;;8.30;99.90;8.20;101514.00;;;;4946657;28;87973;-69
2023/05/19 03:18:13;;;;;;;2.87;1.50;;;8.30;99.90;8.20;101523.00;;;;4947951;28;110026;-69
2023/05/19 03:20:41;;;;;;;1.83;1.20;;;8.40;99.90;8.20;101520.00;;;;4947207;28;88081;-69
2023/05/19 03:23:07;;;;;;;2.07;1.83;;;8.40;99.90;8.20;101521.00;;;;4946345;28;87868;-70
2023/05/19 03:25:33;;;;;;;2.50;1.97;;;8.40;99.90;8.20;101523.00;;;;4948644;28;86951;-71
2023/05/19 03:27:59;;;;;;;2.00;1.80;;;8.40;99.90;8.20;101513.00;;;;4947409;28;117186;-70
2023/05/19 03:30:24;;;;;;;2.37;2.17;;;8.30;99.90;8.20;101520.00;;;;4946502;28;108684;-70
2023/05/19 03:32:50;;;;;;;2.07;1.50;;;8.30;99.90;8.20;101515.00;;;;4949434;28;88679;-70
2023/05/19 03:35:16;;;;;;;3.07;1.80;;;8.30;99.90;8.20;101522.00;;;;4950116;28;88195;-70
2023/05/19 03:37:42;;;;;;;1.63;1.50;;;8.30;99.90;8.20;101518.00;;;;4949412;28;87963;-70
2023/05/19 03:40:09;;;;;;;1.70;1.10;;;8.30;99.90;8.30;101520.00;;;;4946641;28;117732;-70
2023/05/19 03:42:35;;;;;;;2.23;2.03;;;8.40;99.90;8.30;101519.00;;;;4947370;28;87751;-70
2023/05/19 03:45:01;;;;;;;2.23;1.27;;;8.40;99.90;8.40;101523.00;;;;4946398;28;98162;-69
2023/05/19 03:47:27;;;;;;;1.37;1.27;;;8.40;99.90;8.50;101517.00;;;;4947176;28;87853;-69
2023/05/19 03:49:52;;;;;;;1.73;1.63;;;8.60;99.90;8.60;101527.00;;;;4945975;28;117212;-69
2023/05/19 03:52:18;;;;;;;3.93;2.00;;;8.60;99.90;8.70;101509.00;;;;4946983;28;87701;-69
2023/05/19 03:54:44;;;;;;;1.50;1.40;;;8.70;99.90;8.70;101519.00;;;;4947273;28;87678;-69
2023/05/19 03:57:10;;;;;;;5.77;1.40;;;8.80;99.90;8.80;101522.00;;;;4944604;28;89534;-69
2023/05/19 03:59:36;;;;;;;1.53;1.43;;;8.90;99.90;8.90;101515.00;;;;4945506;28;89711;-69
2023/05/19 04:02:02;;;;;;;1.73;1.17;;;8.90;99.90;9.00;101526.00;;;;4945807;28;87958;-69
2023/05/19 04:04:28;;;;;;;1.53;1.37;;;9.00;99.90;9.00;101530.00;;;;4948216;28;87638;-69
2023/05/19 04:06:53;;;;;;;1.27;1.20;;;9.10;99.90;9.10;101531.00;;;;4946566;28;87828;-69
2023/05/19 04:09:20;;;;;;;1.80;1.20;;;9.10;99.90;9.20;101529.00;;;;4947933;28;116623;-69
2023/05/19 04:11:45;;;;;;;2.67;1.53;;;9.20;99.90;9.30;101531.00;;;;4946145;28;88044;-69
2023/05/19 04:14:11;;;;;;;1.83;1.53;;;9.30;99.90;9.30;101532.00;;;;4948403;28;109731;-69
2023/05/19 04:16:37;;;;;;;2.10;1.90;;;9.40;99.90;9.30;101539.00;;;;4944961;28;117484;-69
2023/05/19 04:19:02;;;;;;;4.03;1.70;;;9.40;99.90;9.30;101531.00;;;;4949905;28;118447;-69
2023/05/19 04:21:28;;;;;;;1.53;1.43;;;9.40;99.90;9.30;101541.00;;;;4944091;28;108537;-69
2023/05/19 04:23:54;;;;;;;1.47;1.37;;;9.40;99.90;9.30;101553.00;;;;4944890;28;97172;-72
2023/05/19 04:26:21;;;;;;;4.30;2.03;;;9.40;99.90;9.30;101544.00;;;;4946110;28;87911;-70
2023/05/19 04:28:47;;;;;;;1.80;1.50;;;9.40;99.90;9.20;101551.00;;;;4945311;28;88339;-69
2023/05/19 04:31:14;;;;;;;1.67;1.07;;;9.30;99.90;9.10;101542.00;;;;4948503;28;87673;-70
2023/05/19 04:33:40;;;;;;;2.07;1.70;;;9.20;99.90;9.10;101545.00;;;;4946472;28;107720;-69
2023/05/19 04:36:09;;;;;;;2.77;1.80;;;9.10;99.90;9.10;101536.00;;;;4947365;28;88150;-69
2023/05/19 04:38:36;;;;;;;2.40;1.20;;;9.10;99.90;9.10;101542.00;;;;4945712;28;88728;-69
2023/05/19 04:41:03;;;;;;;2.90;1.00;;;9.20;99.90;9.10;101537.00;;;;4946191;28;93825;-70
2023/05/19 04:43:28;;;;;;;1.47;1.37;;;9.20;99.90;9.20;101531.00;;;;4947211;28;87830;-69
2023/05/19 04:45:54;;;;;;;1.97;1.50;;;9.20;99.90;9.20;101536.00;;;;4945699;28;119276;-69
2023/05/19 04:48:23;;;;;;;1.37;1.27;;;9.30;99.90;9.30;101543.00;;;;4945494;28;118454;-69
2023/05/19 04:50:50;;;;;;;1.83;1.47;;;9.30;99.90;9.40;101546.00;;;;4945238;28;90507;-69
2023/05/19 04:53:17;;;;;;;1.70;1.60;;;9.40;99.90;9.40;101546.00;;;;4945544;28;87825;-69
2023/05/19 04:55:43;;;;;;;2.50;1.50;;;9.50;99.90;9.60;101554.00;;;;4946076;28;88791;-69
2023/05/19 04:58:09;;;;;;;1.20;1.17;;;9.60;99.90;9.70;101545.00;;;;4944392;28;116699;-69
2023/05/19 05:00:36;;;;;;;1.90;1.50;;;9.70;99.90;9.80;101545.00;;;;4947782;28;88798;-69
2023/05/19 05:03:05;;;;;;;2.67;1.87;;;9.80;99.90;9.90;101555.00;;;;4945505;28;108638;-71
2023/05/19 05:05:31;;;;;;;1.47;1.17;;;9.90;99.90;9.90;101555.00;;;;4945307;28;89518;-69
2023/05/19 05:07:57;;;;;;;3.00;2.07;;;10.00;99.90;10.00;101540.00;;;;4943069;28;88903;-68
2023/05/19 05:10:24;;;;;;;1.47;1.20;;;10.00;99.90;10.10;101547.00;;;;4945859;28;110275;-69
2023/05/19 05:12:49;;;;;;;4.67;1.70;;;10.10;99.90;10.10;101540.00;;;;4942572;28;101342;-68
2023/05/19 05:15:16;;;;;;;2.30;1.33;;;10.20;99.90;10.20;101543.00;;;;4941694;28;89041;-68
2023/05/19 05:17:42;;;;;;;2.90;1.97;;;10.20;99.90;10.30;101543.00;;;;4942538;28;109104;-68
2023/05/19 05:20:10;;;;;;;2.10;1.90;;;10.30;99.90;10.30;101537.00;;;;4942559;28;87894;-70
2023/05/19 05:22:37;;;;;;;2.50;1.87;;;10.30;99.90;10.40;101523.00;;;;4944701;28;87739;-73
2023/05/19 05:25:04;;;;;;;2.10;1.23;;;10.50;99.90;10.40;101538.00;;;;4946494;28;89261;-71
2023/05/19 05:27:30;;;;;;;2.20;1.57;;;10.40;99.90;10.50;101525.00;;;;4942371;28;87543;-69
2023/05/19 05:29:55;;;;;;;1.83;1.63;;;10.50;99.90;10.60;101530.00;;;;4944742;28;101776;-69
2023/05/19 05:32:22;;;;;;;3.07;1.83;;;10.50;99.90;10.60;101532.00;;;;4942562;28;109141;-69
2023/05/19 05:34:47;;;;;;;2.47;1.73;;;10.60;99.90;10.80;101541.00;;;;4940969;28;118142;-70
2023/05/19 05:37:14;;;;;;;2.00;1.43;;;10.70;99.90;10.90;101530.00;;;;4946307;28;89651;-70
2023/05/19 05:39:39;;;;;;;1.80;1.70;;;10.80;99.90;11.00;101530.00;;;;4942944;28;88017;-70
2023/05/19 05:42:07;;;;;;;1.67;1.57;;;10.90;99.90;11.00;101535.00;;;;4943181;28;107237;-69
2023/05/19 05:44:34;;;;;;;1.70;1.53;;;11.00;99.90;11.10;101541.00;;;;4938328;28;92657;-69
2023/05/19 05:47:02;;;;;;;2.77;1.43;;;11.10;99.90;11.20;101526.00;;;;4945101;28;88216;-70
2023/05/19 05:49:28;;;;;;;2.27;1.70;;;11.10;99.90;11.30;101535.00;;;;4941002;28;105248;-70
2023/05/19 05:51:54;;;;;;;2.60;1.90;;;11.20;99.90;11.30;101544.00;;;;4940579;28;89587;-70
2023/05/19 05:54:21;;;;;;;2.07;1.87;;;11.30;99.90;11.40;101546.00;;;;4944569;28;88208;-69
2023/05/19 05:56:48;;;;;;;3.17;1.80;;;11.30;99.90;11.50;101544.00;;;;4942744;28;88524;-70
2023/05/19 05:59:14;;;;;;;2.47;2.00;;;11.40;99.90;11.60;101552.00;;;;4940640;28;100923;-68
2023/05/19 06:01:40;;;;;;;1.67;1.20;;;11.60;99.80;11.80;101546.00;;;;4943512;28;87967;-71
2023/05/19 06:04:06;;;;;;;2.07;1.77;;;11.70;99.70;11.90;101549.00;;;;4942939;28;88885;-70
2023/05/19 06:06:32;;;;;;;2.47;2.10;;;11.80;99.50;12.00;101562.00;;;;4943316;28;107718;-68
2023/05/19 06:08:58;;;;;;;2.60;1.40;;;11.90;99.40;12.10;101563.00;;;;4944335;28;100619;-69
2023/05/19 06:11:23;;;;;;;1.83;1.63;;;12.00;99.30;12.30;101561.00;;;;4944116;28;108593;-70
2023/05/19 06:13:49;;;;;;;1.63;1.53;;;12.20;99.20;12.40;101565.00;;;;4943659;28;95882;-69
2023/05/19 06:16:15;;;;;;;2.17;1.90;;;12.20;99.00;12.50;101573.00;;;;4943426;28;87717;-70
2023/05/19 06:18:40;;;;;;;3.17;1.63;;;12.40;98.90;12.60;101568.00;;;;4944092;28;108359;-68
2023/05/19 06:21:08;;;;;;;1.57;1.47;;;12.50;98.80;12.80;101568.00;;;;4944445;28;110608;-69
2023/05/19 06:23:35;;;;;;;2.00;1.83;;;12.60;98.70;12.90;101570.00;;;;4944906;28;89438;-69
2023/05/19 06:26:01;;;;;;;2.57;1.63;;;12.80;98.60;13.10;101575.00;;;;4944759;28;89775;-70
2023/05/19 06:28:26;;;;;;;2.27;1.90;;;13.00;98.40;13.30;101572.00;;;;4944893;28;87809;-69
2023/05/19 06:30:52;;;;;;;2.20;1.53;;;13.10;98.20;13.40;101578.00;;;;4945171;28;108317;-68
2023/05/19 06:33:18;;;;;;;1.67;1.10;;;13.40;98.00;13.60;101581.00;;;;4943872;28;116927;-68
2023/05/19 06:35:43;;;;;;;3.27;1.87;;;13.40;97.80;13.90;101580.00;;;;4938800;28;117419;-69
2023/05/19 06:38:09;;;;;;;2.43;1.67;;;13.60;97.50;14.10;101571.00;;;;4963664;28;109708;-70
2023/05/19 06:40:35;;;;;;;1.70;1.60;;;13.90;97.30;14.40;101573.00;;;;4962677;28;110068;-69
2023/05/19 06:43:01;;;;;;;3.67;1.43;;;14.10;96.80;14.60;101576.00;;;;4948216;27;89181;-69
2023/05/19 06:45:27;;;;;;;1.98;1.60;;;14.70;96.30;14.80;101575.00;;;;4945672;28;88747;-70
2023/05/19 06:47:53;;;;;;;1.48;1.38;;;14.60;95.70;15.00;101574.00;;;;4958645;28;88770;-70
2023/05/19 06:50:19;;;;;;;3.13;2.30;;;14.80;95.20;15.20;101569.00;;;;4943239;28;87885;-68
2023/05/19 06:52:45;;;;;;;1.50;1.20;;;15.00;94.40;15.40;101568.00;;;;4942573;28;117856;-68
2023/05/19 06:55:11;;;;;;;1.88;1.70;;;15.20;94.20;15.60;101573.00;;;;4944151;28;88497;-68
2023/05/19 06:57:37;;;;;;;2.30;1.55;;;15.40;93.60;15.80;101576.00;;;;4942120;28;87927;-70
2023/05/19 07:00:04;;;;;;;1.48;1.13;;;15.60;92.90;15.90;101584.00;;;;4944186;28;108802;-70
2023/05/19 07:02:30;;;;;;;3.58;1.58;;;15.70;92.30;16.10;101577.00;;;;4944342;28;88857;-68
2023/05/19 07:04:56;;;;;;;2.80;1.42;;;15.90;91.60;16.20;101582.00;;;;4946651;28;87826;-71
2023/05/19 07:07:21;;;;;;;1.25;1.15;;;16.00;91.30;16.30;101583.00;;;;4944570;28;87942;-68
2023/05/19 07:09:47;;;;;;;3.28;1.42;;;16.10;90.30;16.30;101572.00;;;;4944630;28;108526;-70
2023/05/19 07:12:13;;;;;;;2.80;2.13;;;16.10;90.00;16.30;101562.00;;;;4940246;28;118063;-69
2023/05/19 07:14:38;;;;;;;2.85;1.70;;;16.10;89.20;16.30;101568.00;;;;4941427;28;118057;-69
2023/05/19 07:17:04;;;;;;;2.85;1.60;;;16.10;89.30;16.40;101563.00;;;;4941962;28;99377;-69
2023/05/19 07:19:30;;;;;;;1.92;1.63;;;16.20;88.70;16.40;101572.00;;;;4943865;28;88025;-70
2023/05/19 07:21:56;;;;;;;2.00;1.75;;;16.20;87.70;16.30;101580.00;;;;4943260;28;117746;-70
2023/05/19 07:24:22;;;;;;;4.07;1.85;;;16.20;85.90;16.30;101560.00;;;;4945758;28;87937;-70
2023/05/19 07:26:47;;;;;;;1.80;1.10;;;16.20;85.10;16.30;101560.00;;;;4948351;28;88298;-70
2023/05/19 07:29:13;;;;;;;6.18;1.65;;;16.20;83.90;16.30;101565.00;;;;4941187;28;87491;-70
2023/05/19 07:31:39;;;;;;;1.33;1.20;;;16.20;84.30;16.50;101562.00;;;;4946566;28;117296;-69
2023/05/19 07:34:04;;;;;;;2.63;1.73;;;16.30;84.80;16.90;101561.00;;;;4943066;28;118164;-69
2023/05/19 07:36:30;;;;;;;1.40;0.95;;;16.60;84.20;17.10;101560.00;;;;4945034;28;89364;-69
2023/05/19 07:38:56;;;;;;;2.25;1.60;;;16.80;81.80;17.30;101555.00;;;;4940570;28;88010;-70
2023/05/19 07:41:21;;;;;;;1.30;1.20;;;17.00;80.50;17.60;101560.00;;;;4943884;28;118081;-70
2023/05/19 07:43:48;;;;;;;2.47;1.27;;;17.30;76.60;17.80;101561.00;;;;4941703;28;106544;-70
2023/05/19 07:46:14;;;;;;;1.60;1.50;;;17.50;75.50;17.90;101550.00;;;;4943135;28;88160;-69
2023/05/19 07:48:39;;;;;;;2.40;1.17;;;17.60;73.30;18.00;101555.00;;;;4942612;28;87947;-69
2023/05/19 07:51:08;;;;;;;4.43;1.25;;;17.70;72.80;18.20;101544.00;;;;4941536;28;117882;-69
2023/05/19 07:53:35;;;;;;;1.65;0.90;;;18.00;71.40;18.40;101538.00;;;;4941432;28;88812;-70
2023/05/19 07:56:02;;;;;;;1.30;1.17;;;18.10;68.80;18.50;101541.00;;;;4943532;28;87874;-69
2023/05/19 07:58:27;;;;;;;2.22;1.10;;;18.20;68.00;18.50;101540.00;;;;4943022;28;102402;-70
2023/05/19 08:00:57;;;;;;;1.13;0.90;;;18.30;67.00;18.50;101532.00;;;;4942335;28;116087;-69
2023/05/19 08:03:24;;;;;;;1.92;1.30;;;18.30;67.90;18.60;101528.00;;;;4943225;28;88686;-69
2023/05/19 08:05:50;;;;;;;1.45;1.13;;;18.40;65.00;18.50;101544.00;;;;4943644;28;88123;-71
2023/05/19 08:08:15;;;;;;;1.75;1.17;;;18.30;65.70;18.50;101534.00;;;;4941836;28;107122;-69
2023/05/19 08:10:41;;;;;;;1.85;0.93;;;18.30;64.70;18.60;101537.00;;;;4944813;28;105688;-70
2023/05/19 08:13:07;;;;;;;1.50;0.77;;;18.40;63.60;18.70;101521.00;;;;4945427;28;87965;-70
2023/05/19 08:15:33;;;;;;;1.35;0.95;;;18.40;62.10;18.70;101527.00;;;;4942975;28;109515;-70
2023/05/19 08:17:58;;;;;;;1.42;0.65;;;18.50;61.20;18.60;101529.00;;;;4940702;28;108702;-71
2023/05/19 08:20:24;;;;;;;3.15;1.02;;;18.50;60.40;18.60;101537.00;;;;4942815;28;107172;-70
2023/05/19 08:22:50;;;;;;;1.75;0.73;;;18.40;60.00;18.50;101533.00;;;;4941568;28;87796;-71
2023/05/19 08:25:16;;;;;;;1.13;0.90;;;18.40;59.60;18.70;101545.00;;;;4943357;28;88961;-69
2023/05/19 08:27:41;;;;;;;4.82;0.80;;;18.40;59.80;18.80;101540.00;;;;4942933;28;107994;-69
2023/05/19 08:30:08;;;;;;;1.88;0.98;;;18.60;59.60;18.90;101543.00;;;;4942282;28;116966;-71
2023/05/19 08:32:33;;;;;;;1.05;0.90;;;18.50;59.30;18.90;101538.00;;;;4942291;28;107456;-70
2023/05/19 08:34:59;;;;;;;0.57;0.57;;;18.70;59.20;18.80;101528.00;;;;4940829;28;110017;-69
2023/05/19 08:37:25;;;;;;;1.98;1.05;;;18.70;59.10;18.50;101533.00;;;;4940800;28;106430;-71
2023/05/19 08:39:50;;;;;;;1.70;1.00;;;18.50;58.70;18.20;101526.00;;;;4941940;28;116950;-71
2023/05/19 08:42:16;;;;;;;3.58;0.90;;;18.20;58.80;18.00;101521.00;;;;4944243;28;91212;-68
2023/05/19 08:44:42;;;;;;;0.73;0.60;;;18.00;59.40;18.10;101517.00;;;;4943686;28;110499;-68
2023/05/19 08:47:12;;;;;;;1.00;0.60;;;17.90;60.00;18.30;101522.00;;;;4943936;28;88078;-70
2023/05/19 08:49:50;;;;;;;3.65;0.80;;;18.20;59.70;18.40;101523.00;;;;4945746;28;90017;-68
2023/05/19 08:52:48;;;;;;;0.80;0.80;;;18.10;59.00;18.60;101521.00;;;;4947819;28;89765;-70
2023/05/19 08:55:36;;;;;;;1.40;0.85;;;18.30;59.10;18.80;101526.00;;;;4943088;28;87743;-69
2023/05/19 08:58:03;;;;;;;3.00;0.90;;;18.50;58.70;18.90;101524.00;;;;4946521;28;91484;-69
2023/05/19 09:00:29;;;;;;;1.73;0.57;;;18.60;58.50;18.90;101512.00;;;;4941962;28;90059;-68
2023/05/19 09:02:56;;;;;;;0.60;0.60;;;18.70;58.10;18.80;101520.00;;;;4939171;28;87877;-68
2023/05/19 09:05:22;;;;;;;1.35;0.93;;;18.90;57.70;18.90;101531.00;;;;4942828;28;87811;-69
2023/05/19 09:07:48;;;;;;;1.65;0.85;;;18.60;57.20;18.80;101526.00;;;;4938286;28;108581;-69
2023/05/19 09:10:15;;;;;;;1.27;0.88;;;18.60;57.30;18.80;101525.00;;;;4941064;28;116795;-68
2023/05/19 09:12:44;;;;;;;2.10;1.08;;;18.60;57.90;19.00;101523.00;;;;4939395;28;87969;-69
2023/05/19 09:15:11;;;;;;;1.95;1.00;;;18.70;58.00;19.10;101519.00;;;;4945927;27;90173;-70
2023/05/19 09:17:38;;;;;;;0.75;0.75;;;18.80;57.90;19.30;101532.00;;;;4962134;28;88332;-71
2023/05/19 09:20:09;;;;;;;1.75;0.63;;;18.90;57.60;19.60;101506.00;;;;4961779;28;87873;-70
2023/05/19 09:22:46;;;;;;;3.78;0.80;;;19.20;57.70;20.00;101516.00;;;;4961680;28;88592;-71
2023/05/19 09:25:24;;;;;;;1.20;0.95;;;19.50;56.90;20.30;101509.00;;;;4962780;28;87846;-70
2023/05/19 09:27:50;;;;;;;1.48;0.68;;;19.90;56.20;20.50;101507.00;;;;4962588;28;87935;-70
2023/05/19 09:30:16;;;;;;;2.35;0.77;;;20.10;55.20;20.70;101508.00;;;;4960221;28;89449;-69
2023/05/19 09:32:46;;;;;;;0.95;0.85;;;20.30;55.20;20.90;101510.00;;;;4959536;28;88822;-73
2023/05/19 09:35:12;;;;;;;1.02;0.68;;;20.50;54.40;20.90;101511.00;;;;4965994;28;87875;-69
2023/05/19 09:37:40;;;;;;;1.52;0.93;;;20.60;54.30;21.00;101517.00;;;;4962257;28;88023;-71
2023/05/19 09:40:08;;;;;;;2.10;1.23;;;20.70;54.30;21.20;101516.00;;;;4960257;28;88793;-70
2023/05/19 09:42:37;;;;;;;0.73;0.73;;;20.90;53.70;21.40;101504.00;;;;4960669;28;89901;-70
2023/05/19 09:45:03;;;;;;;1.45;1.15;;;21.00;53.00;21.30;101526.00;;;;4962423;28;95269;-71
2023/05/19 09:47:40;;;;;;;0.52;0.52;;;21.10;52.10;21.00;101518.00;;;;4963050;28;88010;-69
2023/05/19 09:50:10;;;;;;;0.80;0.65;;;20.90;51.60;20.80;101516.00;;;;4962485;28;88165;-71
2023/05/19 09:52:42;;;;;;;0.60;0.60;;;20.70;52.50;20.50;101516.00;;;;4962637;28;87783;-69
2023/05/19 09:55:11;;;;;;;0.93;0.70;;;20.40;52.60;20.30;101515.00;;;;4948514;28;88079;-72
2023/05/19 09:57:39;;;;;;;1.65;0.60;;;20.10;53.30;20.00;101515.00;;;;4966852;28;87188;-70
2023/05/19 10:00:18;;;;;;;0.57;0.57;;;19.90;53.50;19.70;101504.00;;;;4969206;28;88494;-70
2023/05/19 10:02:46;;;;;;;0.90;0.63;;;19.60;53.60;19.50;101500.00;;;;4965848;28;88089;-72
2023/05/19 10:05:16;;;;;;;2.63;1.35;;;19.40;54.50;19.30;101489.00;;;;4936123;27;89966;-72
2023/05/19 10:07:48;;;;;;;1.00;0.57;;;19.20;54.80;19.20;101494.00;;;;4968572;28;87882;-69
2023/05/19 10:10:14;;;;;;;1.83;1.00;;;19.10;55.10;19.20;101494.00;;;;4964750;28;88386;-70
2023/05/19 10:12:41;;;;;;;0.50;0.47;;;19.00;55.80;19.20;101498.00;;;;4962336;28;116669;-70
2023/05/19 10:15:15;;;;;;;0.98;0.85;;;19.00;55.80;19.40;101504.00;;;;4963975;28;87878;-72
2023/05/19 10:17:42;;;;;;;0.63;0.63;;;19.10;56.30;19.70;101493.00;;;;4963852;28;87986;-70
2023/05/19 10:20:17;;;;;;;0.60;0.60;;;19.30;55.80;19.80;101494.00;;;;4969336;28;87829;-71
2023/05/19 10:22:47;;;;;;;0.40;0.40;;;19.50;55.60;19.80;101493.00;;;;4949011;28;89619;-71
2023/05/19 10:25:14;;;;;;;1.73;1.10;;;19.50;54.90;19.70;101486.00;;;;4967658;28;88049;-71
2023/05/19 10:27:54;;;;;;;2.17;0.75;;;19.50;55.20;19.80;101484.00;;;;4969735;28;88232;-70
2023/05/19 10:30:29;;;;;;;3.47;1.45;;;19.60;55.10;19.60;101483.00;;;;4968959;28;88815;-70
2023/05/19 10:32:56;;;;;;;0.98;0.82;;;19.50;54.90;19.60;101485.00;;;;4966774;28;102833;-69
2023/05/19 10:36:08;;;;;;;1.02;0.93;;;19.40;55.20;19.60;101481.00;;;;4964050;28;90189;-71
2023/05/19 10:39:04;;;;;;;1.58;0.60;;;19.40;55.10;19.50;101475.00;;;;4965341;28;88462;-70
2023/05/19 10:41:41;;;;;;;1.27;0.63;;;19.40;55.40;19.50;101471.00;;;;4964176;28;88060;-70
2023/05/19 10:44:50;;;;;;;1.10;0.98;;;19.30;55.30;19.50;101475.00;;;;4967460;28;88110;-68
2023/05/19 10:47:23;;;;;;;2.47;1.40;;;19.30;55.50;19.80;101472.00;;;;4964005;28;87979;-70
2023/05/19 10:49:52;;;;;;;1.02;0.68;;;19.40;55.60;20.20;101472.00;;;;4888893;27;89143;-69
2023/05/19 10:52:24;;;;;;;1.88;0.70;;;19.70;56.10;20.50;101469.00;;;;4959890;28;90431;-69
2023/05/19 10:54:50;;;;;;;1.02;0.70;;;20.00;55.40;20.60;101473.00;;;;4948008;27;88729;-71